Time;durP1;ratioP1;P1;durP2;ratioP2;P2;SDS_P1;SDS_P2;PMS_P1;PMS_P2;Temp;Humidity;BMP_temperature;BMP_pressure;BME280_temperature;BME280_humidity;BME280_pressure;Samples;Min_cycle;Max_cycle;Signal;HPM_P1;HPM_P2
2023/03/16 00:01:17;;;;;;;6.00;4.13;;;;;;;2.94;100.00;101700.63;4896999;29;20484;-89
2023/03/16 00:03:43;;;;;;;8.07;4.03;;;;;;;3.00;100.00;101691.13;4897334;29;20480;-88
2023/03/16 00:06:08;;;;;;;5.32;3.45;;;;;;;3.01;100.00;101685.63;4896373;29;20036;-88
2023/03/16 00:08:34;;;;;;;9.07;4.40;;;;;;;3.01;100.00;101688.28;4896089;29;20032;-89
2023/03/16 00:11:01;;;;;;;8.63;3.90;;;;;;;3.04;100.00;101689.75;4880453;29;20560;-89
2023/03/16 00:13:28;;;;;;;8.88;5.00;;;;;;;3.09;100.00;101684.72;4895491;29;20039;-89
2023/03/16 00:15:57;;;;;;;8.40;4.80;;;;;;;3.09;100.00;101676.78;4896165;29;20467;-89
2023/03/16 00:18:27;;;;;;;10.80;4.30;;;;;;;3.11;100.00;101668.63;4896868;29;20308;-89
2023/03/16 00:21:01;;;;;;;7.70;4.22;;;;;;;3.08;100.00;101677.78;4896290;29;20031;-89
2023/03/16 00:23:27;;;;;;;5.53;4.20;;;;;;;3.05;100.00;101675.50;4896788;29;20024;-89
2023/03/16 00:26:01;;;;;;;7.43;4.30;;;;;;;3.01;100.00;101668.94;4896053;29;20112;-89
2023/03/16 00:28:29;;;;;;;9.85;4.50;;;;;;;2.97;100.00;101662.34;4895927;29;20127;-89
2023/03/16 00:30:58;;;;;;;10.10;5.07;;;;;;;3.02;100.00;101670.56;4897051;29;20024;-89
2023/03/16 00:33:24;;;;;;;6.67;4.57;;;;;;;3.04;100.00;101671.22;4896648;29;20336;-89
2023/03/16 00:35:49;;;;;;;5.57;3.75;;;;;;;3.02;100.00;101666.09;4895627;29;20112;-88
2023/03/16 00:38:19;;;;;;;12.43;5.03;;;;;;;3.03;100.00;101651.03;4896337;29;20067;-89
2023/03/16 00:40:45;;;;;;;8.57;4.87;;;;;;;3.07;100.00;101654.94;4895501;29;20849;-89
2023/03/16 00:43:12;;;;;;;7.85;4.53;;;;;;;3.06;100.00;101648.00;4896229;29;20119;-89
2023/03/16 00:45:37;;;;;;;10.40;4.10;;;;;;;3.01;100.00;101645.91;4888024;29;20049;-90
2023/03/16 00:48:02;;;;;;;9.07;4.43;;;;;;;3.02;100.00;101650.19;4880541;29;20041;-89
2023/03/16 00:50:28;;;;;;;7.82;4.28;;;;;;;3.06;100.00;101649.81;4896973;29;20115;-90
2023/03/16 00:52:53;;;;;;;5.10;4.13;;;;;;;3.04;100.00;101644.72;4897717;29;20028;-90
2023/03/16 00:55:19;;;;;;;5.43;3.93;;;;;;;3.03;100.00;101646.53;4895380;29;20503;-89
2023/03/16 00:57:45;;;;;;;7.13;3.97;;;;;;;2.99;100.00;101639.16;4894347;29;20029;-90
2023/03/16 01:00:13;;;;;;;6.73;4.30;;;;;;;3.01;100.00;101632.66;4879441;29;20068;-90
2023/03/16 01:02:39;;;;;;;8.50;4.82;;;;;;;2.98;100.00;101629.59;4894642;29;20064;-90
2023/03/16 01:05:05;;;;;;;7.97;4.23;;;;;;;3.00;100.00;101631.06;4895416;29;20492;-89
2023/03/16 01:07:30;;;;;;;8.25;4.95;;;;;;;2.99;100.00;101624.13;4896408;29;20029;-90
2023/03/16 01:09:56;;;;;;;6.80;3.87;;;;;;;2.96;100.00;101613.91;4896411;29;20025;-90
2023/03/16 01:12:22;;;;;;;5.55;4.20;;;;;;;2.99;100.00;101623.28;4895993;29;20104;-90
2023/03/16 01:14:47;;;;;;;7.63;4.53;;;;;;;2.96;100.00;101608.59;4896033;29;20123;-89
2023/03/16 01:17:14;;;;;;;6.33;4.57;;;;;;;2.98;100.00;101614.53;4894849;29;20301;-89
2023/03/16 01:19:40;;;;;;;9.55;5.22;;;;;;;2.99;100.00;101599.44;4895255;29;20037;-89
2023/03/16 01:22:06;;;;;;;7.60;4.10;;;;;;;2.98;100.00;101597.81;4895950;29;20028;-89
2023/03/16 01:24:33;;;;;;;7.50;5.10;;;;;;;3.02;100.00;101591.94;4879638;29;20036;-89
2023/03/16 01:26:58;;;;;;;7.95;4.30;;;;;;;3.01;100.00;101597.44;4899659;29;20816;-91
2023/03/16 01:29:24;;;;;;;5.73;3.80;;;;;;;2.99;100.00;101581.75;4905092;29;20033;-90
2023/03/16 01:31:49;;;;;;;12.75;5.25;;;;;;;2.99;100.00;101586.22;4896880;29;20108;-90
2023/03/16 01:34:17;;;;;;;5.67;4.40;;;;;;;3.01;100.00;101585.00;4895616;29;20120;-89
2023/03/16 01:36:43;;;;;;;7.65;4.68;;;;;;;2.98;100.00;101573.97;4894563;29;20051;-90
2023/03/16 01:39:10;;;;;;;6.43;4.18;;;;;;;3.02;100.00;101581.34;4895832;29;20028;-90
2023/03/16 01:41:37;;;;;;;8.77;3.80;;;;;;;3.02;100.00;101581.34;4895405;29;20029;-90
2023/03/16 01:44:04;;;;;;;7.38;3.90;;;;;;;3.04;100.00;101581.19;4896087;29;20500;-90
2023/03/16 01:46:29;;;;;;;7.82;4.40;;;;;;;3.04;100.00;101578.53;4862800;29;20036;-91
2023/03/16 01:49:06;;;;;;;10.17;4.20;;;;;;;3.06;100.00;101579.16;4878598;29;20032;-90
2023/03/16 01:51:55;;;;;;;5.00;4.40;;;;;;;3.11;100.00;101574.09;4894858;29;20031;-89
2023/03/16 01:54:44;;;;;;;8.13;4.35;;;;;;;3.13;100.00;101574.72;4879152;29;20079;-90
2023/03/16 01:57:15;;;;;;;7.80;4.80;;;;;;;3.15;100.00;101569.25;4898936;29;20741;-90
2023/03/16 02:00:09;;;;;;;6.78;4.32;;;;;;;3.12;100.00;101573.09;4899259;29;20037;-90
2023/03/16 02:02:42;;;;;;;8.18;4.55;;;;;;;3.08;100.00;101563.91;4879144;29;20105;-90
2023/03/16 02:05:22;;;;;;;7.38;3.88;;;;;;;3.14;100.00;101568.44;4898674;29;20079;-89
2023/03/16 02:07:49;;;;;;;7.53;4.17;;;;;;;3.15;100.00;101564.78;4880236;29;20032;-90
2023/03/16 02:10:17;;;;;;;6.50;4.30;;;;;;;3.15;100.00;101556.03;4894860;29;20032;-90
2023/03/16 02:12:43;;;;;;;9.65;4.32;;;;;;;3.17;100.00;101561.94;4881451;29;20064;-90
2023/03/16 02:15:10;;;;;;;9.18;4.13;;;;;;;3.17;100.00;101551.34;4880450;29;20051;-90
2023/03/16 02:17:36;;;;;;;5.80;4.40;;;;;;;3.22;100.00;101553.44;4898568;29;20103;-90
2023/03/16 02:20:29;;;;;;;6.50;4.15;;;;;;;3.23;100.00;101557.72;4898121;29;20441;-90
2023/03/16 02:22:54;;;;;;;10.70;4.13;;;;;;;3.23;100.00;101549.75;4898268;29;20025;-90
2023/03/16 02:25:25;;;;;;;8.60;4.07;;;;;;;3.24;100.00;101551.41;4895107;29;20021;-90
2023/03/16 02:27:53;;;;;;;7.10;4.35;;;;;;;3.27;100.00;101545.72;4895610;29;20399;-90
2023/03/16 02:30:20;;;;;;;10.45;4.53;;;;;;;3.27;100.00;101551.03;4896798;29;20092;-90
2023/03/16 02:32:48;;;;;;;8.77;4.00;;;;;;;3.26;100.00;101541.44;4898124;29;20036;-90
2023/03/16 02:35:13;;;;;;;7.70;4.47;;;;;;;3.23;100.00;101547.13;4897716;29;20039;-91
2023/03/16 02:37:40;;;;;;;6.27;4.10;;;;;;;3.20;100.00;101540.34;4880913;29;20119;-91
2023/03/16 02:40:18;;;;;;;7.88;4.18;;;;;;;3.18;100.00;101548.50;4880257;29;20064;-91
2023/03/16 02:42:43;;;;;;;8.00;4.32;;;;;;;3.16;100.00;101545.22;4894458;29;20426;-90
2023/03/16 02:45:09;;;;;;;8.93;4.72;;;;;;;3.17;100.00;101543.41;4892374;29;20021;-91
2023/03/16 02:47:40;;;;;;;8.43;4.90;;;;;;;3.15;100.00;101542.78;4897837;29;20089;-91
2023/03/16 02:50:06;;;;;;;6.78;4.18;;;;;;;3.15;100.00;101540.94;4897648;29;20052;-91
2023/03/16 02:52:33;;;;;;;8.93;4.20;;;;;;;3.18;100.00;101547.69;4895534;29;20033;-91
2023/03/16 02:54:59;;;;;;;7.43;4.43;;;;;;;3.18;100.00;101545.84;4895781;29;20107;-91
2023/03/16 02:57:24;;;;;;;7.13;4.27;;;;;;;3.12;100.00;101525.41;4895390;29;20047;-91
2023/03/16 02:59:50;;;;;;;8.87;4.20;;;;;;;3.17;100.00;101532.81;4897624;29;20035;-91
2023/03/16 03:02:16;;;;;;;4.93;3.85;;;;;;;3.15;100.00;101533.00;4879195;29;20124;-91
2023/03/16 03:04:45;;;;;;;11.30;4.20;;;;;;;3.15;100.00;101529.53;4897067;29;20124;-91
2023/03/16 03:07:13;;;;;;;9.73;4.05;;;;;;;3.13;100.00;101529.72;4896858;29;20024;-91
2023/03/16 03:09:41;;;;;;;6.70;3.83;;;;;;;3.11;100.00;101522.97;4897260;29;20092;-91
2023/03/16 03:12:10;;;;;;;8.68;4.50;;;;;;;3.13;100.00;101532.34;4895674;29;20052;-90
2023/03/16 03:14:39;;;;;;;7.75;3.88;;;;;;;3.15;100.00;101527.69;4895145;29;20044;-90
2023/03/16 03:17:06;;;;;;;6.20;3.70;;;;;;;3.13;100.00;101518.31;4880838;29;20025;-90
2023/03/16 03:19:32;;;;;;;10.05;4.03;;;;;;;3.14;100.00;101520.75;4897641;29;20109;-91
2023/03/16 03:21:58;;;;;;;6.80;3.90;;;;;;;3.14;100.00;101515.47;4896304;29;20143;-90
2023/03/16 03:24:24;;;;;;;9.43;3.72;;;;;;;3.12;100.00;101506.88;4897154;29;20536;-90
2023/03/16 03:26:50;;;;;;;8.15;4.05;;;;;;;3.09;100.00;101509.94;4879983;29;20071;-91
2023/03/16 03:29:16;;;;;;;5.78;3.90;;;;;;;3.10;100.00;101514.22;4890814;29;20037;-90
2023/03/16 03:31:42;;;;;;;7.57;4.60;;;;;;;3.07;100.00;101509.31;4908336;29;20477;-91
2023/03/16 03:34:07;;;;;;;9.77;4.25;;;;;;;3.06;100.00;101510.31;4903707;29;20028;-91
2023/03/16 03:36:33;;;;;;;7.67;4.30;;;;;;;3.09;100.00;101512.59;4906110;29;20025;-90
2023/03/16 03:38:59;;;;;;;7.23;4.33;;;;;;;3.07;100.00;101511.94;4882183;29;20033;-91
2023/03/16 03:41:24;;;;;;;6.53;3.70;;;;;;;3.03;100.00;101508.03;4880848;29;20303;-90
2023/03/16 03:43:50;;;;;;;8.38;3.88;;;;;;;3.02;100.00;101503.75;4895166;29;20024;-91
2023/03/16 03:46:15;;;;;;;7.40;4.37;;;;;;;3.00;100.00;101497.81;4897711;29;20053;-91
2023/03/16 03:48:40;;;;;;;6.47;3.93;;;;;;;3.00;100.00;101505.75;4896381;29;20072;-92
2023/03/16 03:51:06;;;;;;;5.90;4.13;;;;;;;2.95;100.00;101500.22;4897414;29;20021;-90
2023/03/16 03:53:31;;;;;;;7.23;4.10;;;;;;;2.97;100.00;101512.28;4895461;29;20036;-90
2023/03/16 03:55:57;;;;;;;5.90;3.63;;;;;;;2.97;100.00;101508.78;4893755;29;20111;-90
2023/03/16 03:58:22;;;;;;;8.97;4.03;;;;;;;2.95;100.00;101510.81;4896211;29;20567;-90
2023/03/16 04:00:47;;;;;;;6.13;3.87;;;;;;;2.95;100.00;101506.34;4896524;29;20028;-90
2023/03/16 04:03:13;;;;;;;9.47;3.67;;;;;;;2.97;100.00;101504.31;4895893;29;20072;-91
2023/03/16 04:05:38;;;;;;;7.82;4.35;;;;;;;3.00;100.00;101497.81;4896214;29;20056;-90
2023/03/16 04:08:04;;;;;;;8.87;4.60;;;;;;;3.01;100.00;101486.22;4897056;29;20029;-90
2023/03/16 04:10:30;;;;;;;5.47;3.47;;;;;;;3.01;100.00;101479.09;4900207;29;20044;-90
2023/03/16 04:12:56;;;;;;;5.53;3.58;;;;;;;3.04;100.00;101483.19;4909461;29;20350;-92
2023/03/16 04:15:21;;;;;;;5.55;3.88;;;;;;;3.08;100.00;101478.31;4896519;29;20039;-91
2023/03/16 04:17:48;;;;;;;7.77;3.90;;;;;;;3.10;100.00;101485.09;4897029;29;20111;-92
2023/03/16 04:20:17;;;;;;;6.60;3.67;;;;;;;3.13;100.00;101478.59;4896287;29;20040;-92
2023/03/16 04:22:44;;;;;;;7.33;3.40;;;;;;;3.11;100.00;101473.47;4895538;29;20177;-92
2023/03/16 04:25:11;;;;;;;9.03;3.73;;;;;;;3.11;100.00;101472.66;4896493;29;20391;-92
2023/03/16 04:27:36;;;;;;;8.05;4.00;;;;;;;3.12;100.00;101483.03;4896418;29;20021;-91
2023/03/16 04:30:10;;;;;;;6.43;3.90;;;;;;;3.14;100.00;101480.22;4878868;29;20031;-91
2023/03/16 04:32:35;;;;;;;7.07;3.40;;;;;;;3.14;100.00;101482.88;4895568;29;20309;-92
2023/03/16 04:35:01;;;;;;;7.43;3.35;;;;;;;3.13;100.00;101471.44;4894665;29;20036;-92
2023/03/16 04:37:26;;;;;;;8.33;3.97;;;;;;;3.18;100.00;101479.63;4896539;29;20036;-91
2023/03/16 04:39:51;;;;;;;8.93;3.60;;;;;;;3.19;100.00;101469.88;4894209;29;20075;-92
2023/03/16 04:42:17;;;;;;;6.28;3.60;;;;;;;3.22;100.00;101480.06;4878513;29;20169;-92
2023/03/16 04:44:45;;;;;;;4.63;3.37;;;;;;;3.22;100.00;101469.47;4896606;29;20032;-92
2023/03/16 04:47:11;;;;;;;7.97;3.70;;;;;;;3.26;100.00;101473.38;4894871;29;20036;-92
2023/03/16 04:49:37;;;;;;;5.90;3.20;;;;;;;3.29;100.00;101477.47;4895599;29;20027;-90
2023/03/16 04:52:03;;;;;;;5.53;3.10;;;;;;;3.27;100.00;101467.06;4894555;29;20305;-91
2023/03/16 04:54:29;;;;;;;7.53;2.90;;;;;;;3.29;100.00;101467.69;4878139;29;20200;-91
2023/03/16 04:56:54;;;;;;;6.50;2.90;;;;;;;3.28;100.00;101467.91;4895755;29;20115;-91
2023/03/16 04:59:19;;;;;;;6.57;3.45;;;;;;;3.30;100.00;101469.34;4895626;29;20035;-91
2023/03/16 05:01:45;;;;;;;5.07;3.07;;;;;;;3.28;100.00;101475.84;4894867;29;20032;-89
2023/03/16 05:04:11;;;;;;;4.63;3.57;;;;;;;3.23;100.00;101459.72;4876863;29;20036;-91
2023/03/16 05:06:36;;;;;;;8.30;3.65;;;;;;;3.24;100.00;101461.34;4877785;29;20029;-90
2023/03/16 05:09:04;;;;;;;6.90;3.17;;;;;;;3.20;100.00;101450.28;4893652;29;20511;-91
2023/03/16 05:11:29;;;;;;;5.75;3.40;;;;;;;3.23;100.00;101460.50;4878472;29;20385;-90
2023/03/16 05:13:55;;;;;;;5.17;2.90;;;;;;;3.20;100.00;101458.25;4895910;29;20036;-91
2023/03/16 05:16:20;;;;;;;6.20;3.17;;;;;;;3.24;100.00;101453.41;4894012;29;20044;-90
2023/03/16 05:18:45;;;;;;;10.27;3.20;;;;;;;3.20;100.00;101454.78;4895403;29;20039;-90
2023/03/16 05:21:11;;;;;;;6.45;3.25;;;;;;;3.22;100.00;101450.94;4895565;29;20088;-90
2023/03/16 05:23:37;;;;;;;6.73;3.23;;;;;;;3.23;100.00;101447.28;4895087;29;20445;-91
2023/03/16 05:26:02;;;;;;;5.72;2.95;;;;;;;3.26;100.00;101446.88;4895428;29;20040;-90
2023/03/16 05:28:28;;;;;;;7.47;3.57;;;;;;;3.24;100.00;101434.84;4899171;29;20048;-90
2023/03/16 05:30:55;;;;;;;6.30;3.63;;;;;;;3.25;100.00;101437.31;4900869;29;20035;-91
2023/03/16 05:33:20;;;;;;;6.20;3.30;;;;;;;3.22;100.00;101431.59;4881692;29;20035;-91
2023/03/16 05:35:46;;;;;;;8.47;3.20;;;;;;;3.29;100.00;101448.31;4896809;29;20032;-91
2023/03/16 05:38:11;;;;;;;8.10;3.20;;;;;;;3.30;100.00;101442.84;4881400;29;20028;-90
2023/03/16 05:40:37;;;;;;;4.83;2.70;;;;;;;3.31;100.00;101438.34;4896602;29;20552;-89
2023/03/16 05:43:03;;;;;;;4.13;3.17;;;;;;;3.31;100.00;101435.69;4882586;29;20096;-92
2023/03/16 05:45:29;;;;;;;5.07;2.70;;;;;;;3.28;100.00;101425.53;4896669;29;20029;-90
2023/03/16 05:47:54;;;;;;;8.65;3.25;;;;;;;3.29;100.00;101427.97;4898495;29;20651;-90
2023/03/16 05:50:21;;;;;;;6.03;2.97;;;;;;;3.29;100.00;101419.19;4898602;29;20028;-90
2023/03/16 05:52:47;;;;;;;5.57;3.40;;;;;;;3.26;100.00;101420.41;4898649;29;20383;-90
2023/03/16 05:55:14;;;;;;;6.45;3.38;;;;;;;3.30;100.00;101426.94;4898828;29;20058;-90
2023/03/16 05:57:40;;;;;;;4.57;3.20;;;;;;;3.31;100.00;101427.75;4899166;29;20027;-91
2023/03/16 06:00:17;;;;;;;6.43;3.17;;;;;;;3.32;100.00;101419.63;4894500;29;20096;-91
2023/03/16 06:02:46;;;;;;;6.00;3.50;;;;;;;3.36;100.00;101420.06;4895758;29;20084;-92
2023/03/16 06:05:11;;;;;;;6.07;3.50;;;;;;;3.36;100.00;101430.66;4899108;29;20039;-95
2023/03/16 06:07:36;;;;;;;6.83;3.13;;;;;;;3.40;100.00;101421.31;4901262;29;20360;-95
2023/03/16 06:10:03;;;;;;;5.80;3.70;;;;;;;3.39;100.00;101424.97;4881576;29;20108;-96
2023/03/16 06:12:29;;;;;;;7.28;2.60;;;;;;;3.39;100.00;101424.97;4888741;29;20032;-90
2023/03/16 06:14:54;;;;;;;6.20;3.00;;;;;;;3.41;100.00;101424.75;4887985;29;20056;-93
2023/03/16 06:17:20;;;;;;;7.40;3.13;;;;;;;3.47;100.00;101414.19;4879426;29;20085;-90
2023/03/16 06:19:45;;;;;;;7.80;3.80;;;;;;;3.49;100.00;101417.47;4878640;29;20096;-94
2023/03/16 06:22:11;;;;;;;7.00;3.30;;;;;;;3.55;100.00;101420.34;4890448;29;20043;-91
2023/03/16 06:24:36;;;;;;;5.53;3.00;;;;;;;3.58;100.00;101414.66;4897103;29;20044;-92
2023/03/16 06:27:01;;;;;;;6.70;3.33;;;;;;;3.67;100.00;101424.06;4896715;29;20028;-91
2023/03/16 06:29:27;;;;;;;4.85;2.70;;;;;;;3.68;100.00;101419.59;4894610;29;20033;-91
2023/03/16 06:31:53;;;;;;;8.07;3.50;;;;;;;3.72;100.00;101416.34;4894408;29;20032;-90
2023/03/16 06:34:19;;;;;;;8.55;3.40;;;;;;;3.72;100.00;101413.72;4897031;29;20040;-91
2023/03/16 06:36:44;;;;;;;6.80;3.63;;;;;;;3.78;100.00;101422.69;4885163;29;20033;-91
2023/03/16 06:39:09;;;;;;;6.63;2.97;;;;;;;3.75;100.00;101418.63;4877829;29;20049;-91
2023/03/16 06:41:34;;;;;;;7.70;3.00;;;;;;;3.79;100.00;101419.03;4886827;29;20093;-91
2023/03/16 06:44:01;;;;;;;4.80;3.13;;;;;;;3.79;100.00;101411.06;4896218;29;20418;-91
2023/03/16 06:46:26;;;;;;;6.27;3.57;;;;;;;3.78;100.00;101415.56;4894904;29;20317;-91
2023/03/16 06:48:51;;;;;;;8.15;2.83;;;;;;;3.82;100.00;101415.19;4895717;29;20051;-91
2023/03/16 06:51:17;;;;;;;6.00;2.80;;;;;;;3.82;100.00;101413.34;4893727;29;20569;-91
2023/03/16 06:53:42;;;;;;;7.87;3.77;;;;;;;3.87;100.00;101410.09;4890758;29;20044;-93
2023/03/16 06:56:07;;;;;;;8.93;2.97;;;;;;;3.93;100.00;101411.97;4908552;29;20731;-90
2023/03/16 06:58:33;;;;;;;4.43;2.80;;;;;;;3.97;100.00;101407.91;4899109;29;20032;-92
2023/03/16 07:01:05;;;;;;;9.93;2.97;;;;;;;4.04;100.00;101419.31;4899512;29;20025;-91
2023/03/16 07:03:33;;;;;;;6.50;2.93;;;;;;;4.09;100.00;101416.09;4903327;29;20041;-92
2023/03/16 07:06:11;;;;;;;4.97;2.53;;;;;;;4.19;100.00;101421.03;4902036;29;20676;-93
2023/03/16 07:08:36;;;;;;;4.22;2.70;;;;;;;4.30;100.00;101419.59;4905375;29;20039;-92
2023/03/16 07:11:02;;;;;;;7.93;3.08;;;;;;;4.37;100.00;101412.47;4914631;29;20032;-91
2023/03/16 07:13:30;;;;;;;8.13;3.67;;;;;;;4.38;100.00;101406.94;4894661;29;20036;-91
2023/03/16 07:15:56;;;;;;;6.38;3.28;;;;;;;4.43;100.00;101416.16;4878664;29;20032;-92
2023/03/16 07:18:21;;;;;;;7.87;3.00;;;;;;;4.43;100.00;101410.84;4897190;29;20027;-92
2023/03/16 07:20:46;;;;;;;5.75;3.30;;;;;;;4.48;100.00;101409.22;4892148;29;20032;-91
2023/03/16 07:23:12;;;;;;;6.93;2.83;;;;;;;4.54;100.00;101400.44;4891826;29;20055;-89
2023/03/16 07:25:37;;;;;;;7.63;2.80;;;;;;;4.62;100.00;101407.38;4893981;29;20112;-92
2023/03/16 07:28:03;;;;;;;7.77;3.10;;;;;;;4.69;100.00;101404.72;4880559;29;20025;-92
2023/03/16 07:30:29;;;;;;;6.80;2.72;;;;;;;4.73;100.00;101395.34;4892629;29;20060;-93
2023/03/16 07:32:55;;;;;;;6.60;2.60;;;;;;;4.85;100.00;101393.69;4897694;29;20512;-94
2023/03/16 07:35:22;;;;;;;6.13;3.03;;;;;;;4.92;100.00;101398.19;4896313;29;20029;-92
2023/03/16 07:37:48;;;;;;;6.65;3.05;;;;;;;4.97;100.00;101401.06;4896493;29;20138;-91
2023/03/16 07:40:13;;;;;;;5.27;3.33;;;;;;;5.01;100.00;101396.97;4877805;29;20020;-93
2023/03/16 07:42:40;;;;;;;5.13;2.43;;;;;;;5.06;100.00;101401.66;4896213;29;20388;-93
2023/03/16 07:45:06;;;;;;;4.85;2.60;;;;;;;5.08;100.00;101396.97;4894735;29;20111;-92
2023/03/16 07:47:32;;;;;;;6.30;2.40;;;;;;;5.07;100.00;101395.31;4892411;29;20041;-93
2023/03/16 07:49:58;;;;;;;5.95;2.95;;;;;;;5.06;100.00;101391.03;4892175;29;20097;-92
2023/03/16 07:52:24;;;;;;;6.83;2.63;;;;;;;5.08;100.00;101395.09;4893760;29;20060;-92
2023/03/16 07:54:50;;;;;;;3.77;2.40;;;;;;;5.07;100.00;101390.81;4889901;29;20348;-91
2023/03/16 07:57:15;;;;;;;9.27;2.80;;;;;;;5.16;100.00;101404.69;4891886;29;20544;-92
2023/03/16 07:59:40;;;;;;;7.63;2.80;;;;;;;5.19;100.00;101398.97;4894399;29;20293;-92
2023/03/16 08:02:14;;;;;;;11.00;3.17;;;;;;;5.21;100.00;101396.94;4894253;29;20041;-91
2023/03/16 08:04:42;;;;;;;6.70;2.80;;;;;;;5.27;100.00;101396.09;4895569;29;20051;-92
2023/03/16 08:07:13;;;;;;;5.65;2.85;;;;;;;5.34;100.00;101400.56;4897328;29;20547;-92
2023/03/16 08:09:39;;;;;;;6.78;3.28;;;;;;;5.41;100.00;101401.38;4896203;29;20493;-91
2023/03/16 08:12:06;;;;;;;7.67;3.30;;;;;;;5.51;100.00;101391.13;4895381;29;20075;-91
2023/03/16 08:14:33;;;;;;;5.78;3.00;;;;;;;5.68;99.49;101394.13;4877299;29;20347;-88
2023/03/16 08:17:00;;;;;;;5.32;3.20;;;;;;;5.76;97.80;101390.41;4869055;29;20164;-88
2023/03/16 08:19:31;;;;;;;6.72;3.13;;;;;;;5.84;97.73;101389.34;4893771;29;20025;-91
2023/03/16 08:22:00;;;;;;;6.32;2.80;;;;;;;5.90;98.03;101391.97;4893373;29;20029;-90
2023/03/16 08:24:28;;;;;;;5.47;2.93;;;;;;;6.00;97.57;101396.88;4887389;29;20048;-92
2023/03/16 08:26:56;;;;;;;6.72;3.00;;;;;;;6.09;96.29;101393.97;4881003;29;20041;-96
2023/03/16 08:29:22;;;;;;;6.32;3.40;;;;;;;6.09;93.69;101397.44;4898328;29;20474;-95
2023/03/16 08:31:47;;;;;;;4.95;2.95;;;;;;;6.19;95.38;101399.63;4882051;29;20028;-93
2023/03/16 08:34:12;;;;;;;4.60;3.50;;;;;;;6.13;92.87;101398.66;4894556;29;20563;-89
2023/03/16 08:36:38;;;;;;;6.13;3.13;;;;;;;6.21;94.48;101406.34;4893430;29;20099;-88
2023/03/16 08:39:04;;;;;;;8.93;2.70;;;;;;;6.20;92.29;101406.59;4893838;29;20033;-89
2023/03/16 08:44:06;;;;;;;5.82;2.75;;;;;;;6.32;90.81;101396.06;4929473;23;20064;-89
2023/03/16 08:46:39;;;;;;;6.93;2.80;;;;;;;6.47;90.32;101387.78;4907929;29;20036;-89
2023/03/16 08:49:05;;;;;;;6.20;3.35;;;;;;;6.66;90.38;101404.63;4911710;29;20444;-89
2023/03/16 08:51:31;;;;;;;6.45;3.08;;;;;;;6.77;88.70;101401.25;4898784;29;20089;-88
2023/03/16 08:53:57;;;;;;;7.53;3.10;;;;;;;6.91;89.31;101398.50;4878689;29;20033;-88
2023/03/16 08:56:22;;;;;;;6.90;2.97;;;;;;;7.07;87.32;101397.09;4889948;29;20033;-88
2023/03/16 08:58:48;;;;;;;5.10;3.00;;;;;;;7.17;85.20;101391.25;4892755;29;20040;-88
2023/03/16 09:01:19;;;;;;;9.17;3.17;;;;;;;7.20;85.38;101381.00;4894144;29;20309;-88
2023/03/16 09:03:45;;;;;;;5.28;3.08;;;;;;;7.23;84.71;101374.38;4897419;29;20105;-88
2023/03/16 09:06:12;;;;;;;4.50;2.58;;;;;;;7.16;83.91;101384.28;4898043;29;20115;-89
2023/03/16 09:08:38;;;;;;;5.07;2.73;;;;;;;7.11;84.52;101383.13;4893428;29;20041;-88
2023/03/16 09:11:07;;;;;;;6.00;2.80;;;;;;;7.13;84.44;101374.91;4897240;29;21031;-88
2023/03/16 09:13:33;;;;;;;4.85;2.40;;;;;;;7.35;85.24;101377.13;4889187;29;20033;-88
2023/03/16 09:15:58;;;;;;;4.25;2.58;;;;;;;7.56;83.20;101368.69;4877625;29;20126;-88
2023/03/16 09:18:26;;;;;;;7.00;3.10;;;;;;;7.73;81.02;101368.88;4878297;29;20123;-88
2023/03/16 09:20:52;;;;;;;5.17;2.53;;;;;;;7.80;81.47;101379.44;4881262;29;20296;-88
2023/03/16 09:23:18;;;;;;;3.17;2.83;;;;;;;7.92;79.80;101365.34;4880159;29;20041;-88
2023/03/16 09:25:44;;;;;;;5.07;2.60;;;;;;;8.13;80.14;101375.50;4882083;29;20096;-89
2023/03/16 09:28:10;;;;;;;5.40;2.45;;;;;;;8.23;79.29;101366.94;4890236;29;20029;-87
2023/03/16 09:30:36;;;;;;;3.75;2.25;;;;;;;8.33;79.04;101369.03;4896144;29;20473;-88
2023/03/16 09:33:01;;;;;;;3.73;2.50;;;;;;;8.24;77.49;101359.75;4896264;29;20047;-88
2023/03/16 09:35:26;;;;;;;6.03;2.40;;;;;;;8.42;78.19;101365.00;4896775;29;20448;-89
2023/03/16 09:37:51;;;;;;;8.13;2.27;;;;;;;8.52;76.46;101366.31;4886238;29;20535;-89
2023/03/16 09:40:28;;;;;;;8.87;2.60;;;;;;;8.67;74.62;101368.53;4891824;29;20504;-89
2023/03/16 09:43:17;;;;;;;4.15;2.08;;;;;;;8.83;74.56;101353.69;4893876;29;20083;-88
2023/03/16 09:46:21;;;;;;;3.88;1.95;;;;;;;8.86;72.82;101372.75;4897154;29;20119;-87
2023/03/16 09:48:47;;;;;;;6.27;2.10;;;;;;;8.90;72.48;101379.25;4892546;29;20416;-87
2023/03/16 09:51:21;;;;;;;3.97;2.07;;;;;;;8.77;72.50;101371.44;4890536;29;20392;-88
2023/03/16 09:53:51;;;;;;;5.15;2.20;;;;;;;8.63;73.09;101371.69;4896113;29;20041;-88
2023/03/16 09:56:35;;;;;;;4.28;1.85;;;;;;;8.77;73.32;101366.94;4876510;29;20028;-90
2023/03/16 09:59:01;;;;;;;5.07;2.00;;;;;;;8.86;72.76;101362.03;4893675;29;20028;-91
2023/03/16 10:01:47;;;;;;;5.20;2.22;;;;;;;9.06;73.05;101350.97;4894766;29;20480;-90
2023/03/16 10:04:37;;;;;;;6.13;2.00;;;;;;;9.15;73.67;101350.63;4892370;29;20126;-91
2023/03/16 10:07:26;;;;;;;5.27;1.70;;;;;;;9.38;71.43;101342.56;4900148;29;20330;-90
2023/03/16 10:10:09;;;;;;;3.38;1.70;;;;;;;9.46;69.58;101333.34;4898385;29;20531;-90
2023/03/16 10:12:44;;;;;;;5.32;2.13;;;;;;;9.34;69.38;101337.91;4899005;29;20667;-90
2023/03/16 10:15:17;;;;;;;4.13;2.00;;;;;;;9.24;68.90;101339.34;4881874;29;20036;-90
2023/03/16 10:17:49;;;;;;;6.65;1.90;;;;;;;9.08;70.25;101332.06;4897102;29;20028;-90
2023/03/16 10:20:19;;;;;;;4.57;2.17;;;;;;;9.04;69.41;101328.22;4897819;29;20040;-91
2023/03/16 10:22:46;;;;;;;4.43;2.07;;;;;;;9.12;71.07;101327.03;4899045;29;20076;-90
2023/03/16 10:25:21;;;;;;;4.63;2.10;;;;;;;9.16;68.20;101320.97;4893226;29;20396;-92
2023/03/16 10:27:47;;;;;;;5.43;2.00;;;;;;;9.25;69.56;101318.75;4880630;29;20051;-91
2023/03/16 10:30:34;;;;;;;4.07;1.70;;;;;;;9.39;67.86;101319.28;4896879;29;20689;-91
2023/03/16 10:33:04;;;;;;;4.60;1.60;;;;;;;9.53;68.61;101317.16;4896742;29;20033;-90
2023/03/16 10:35:50;;;;;;;2.63;2.00;;;;;;;9.74;66.43;101321.00;4878644;29;20127;-88
2023/03/16 10:38:45;;;;;;;4.27;1.73;;;;;;;9.74;66.20;101307.63;4897622;29;20036;-89
2023/03/16 10:41:16;;;;;;;4.23;1.50;;;;;;;9.70;66.44;101320.69;4884292;29;20332;-89
2023/03/16 10:43:46;;;;;;;5.53;1.55;;;;;;;9.56;66.45;101305.97;4889169;29;20040;-90
2023/03/16 10:46:11;;;;;;;4.22;1.50;;;;;;;9.66;66.89;101319.53;4893009;29;20069;-89
2023/03/16 10:48:37;;;;;;;3.07;1.37;;;;;;;9.80;67.20;101317.38;4902182;29;20032;-90
2023/03/16 10:51:10;;;;;;;4.47;1.50;;;;;;;9.96;64.37;101299.72;4873810;29;20490;-87
2023/03/16 10:53:39;;;;;;;4.13;1.85;;;;;;;10.15;64.29;101302.16;4890426;29;20107;-89
2023/03/16 10:56:18;;;;;;;5.97;1.88;;;;;;;10.41;63.86;101302.59;4904956;29;20043;-91
2023/03/16 10:58:45;;;;;;;6.18;1.52;;;;;;;10.83;64.70;101299.47;4872683;29;20029;-91
2023/03/16 11:01:19;;;;;;;5.43;1.70;;;;;;;11.05;61.15;101296.78;4896332;29;20032;-90
2023/03/16 11:03:50;;;;;;;3.25;1.58;;;;;;;11.35;61.76;101292.81;4883200;29;20084;-92
2023/03/16 11:06:29;;;;;;;4.90;1.47;;;;;;;11.61;59.42;101292.28;4881774;29;20119;-91
2023/03/16 11:09:07;;;;;;;6.40;1.80;;;;;;;11.71;60.17;101292.41;4895494;29;20289;-92
2023/03/16 11:11:33;;;;;;;4.70;1.80;;;;;;;11.87;58.12;101297.91;4861592;29;20112;-91
2023/03/16 11:14:03;;;;;;;6.65;1.70;;;;;;;11.89;56.17;101291.19;4896101;29;20041;-91
2023/03/16 11:17:13;;;;;;;2.58;1.70;;;;;;;11.93;57.52;101283.47;4893833;29;20389;-91
2023/03/16 11:19:43;;;;;;;5.95;1.67;;;;;;;11.55;55.08;101266.47;4818549;29;20046;-91
2023/03/16 11:22:17;;;;;;;4.13;1.40;;;;;;;11.66;57.80;101265.50;4844017;29;20348;-91
2023/03/16 11:24:52;;;;;;;5.87;1.50;;;;;;;12.15;57.38;101269.13;4858785;29;20049;-92
2023/03/16 11:27:20;;;;;;;4.13;1.50;;;;;;;12.33;54.88;101267.94;4891094;29;20212;-90
2023/03/16 11:29:51;;;;;;;3.60;1.27;;;;;;;12.29;56.13;101258.78;4877172;29;20063;-90
2023/03/16 11:32:26;;;;;;;3.80;1.63;;;;;;;12.22;54.79;101264.38;4882170;29;20155;-91
2023/03/16 11:34:52;;;;;;;2.08;1.35;;;;;;;12.25;54.38;101263.84;4896270;29;20063;-95